• Join FlightAware (Why Join?)
  • Login
  • US Flag 
Rudolph Flight #1: Arrived! 
11:05AM EST


 

Airport Tracker/Info


-or-


 

Live Flight TrackerFlight Track Log ✈ TAM3120 ✈ 27-Oct-2013 ✈ SBNF / NVT - SBSP / CGH

Flight Track Log - Related Links

Times and Time Zones

All times are in EDT time to prevent confusion due to time zone crossing. See the TAM3120 flight status page for this flight to view local times or setup timezone preferences in your user account.

Time Position Orientation Groundspeed Altitude Reporting Facility
EDT Latitude Longitude Course Direction KTS MPH feet Rate Location/Type
11:59AM -26.6450 -48.4640 29° Northeast 326 375 11,100  Level FlightAware
12:00PM -26.5870 -48.4270 30° Northeast 374 430 12,100 2,040 Climbing FlightAware
12:00PM -26.5340 -48.3930 30° Northeast 386 444 13,700 2,340 Climbing FlightAware
12:01PM -26.4860 -48.3630 29° Northeast 401 461 14,700 2,220 Climbing FlightAware
12:02PM -26.4120 -48.3150 30° Northeast 413 475 16,500 2,280 Climbing FlightAware
12:02PM -26.3560 -48.2800 29° Northeast 425 489 17,700 2,100 Climbing FlightAware
12:03PM -26.2990 -48.2440 30° Northeast 434 499 18,800 1,980 Climbing FlightAware
12:03PM -26.2240 -48.1960 30° Northeast 448 516 20,200 2,040 Climbing FlightAware
12:04PM -26.1490 -48.1490 29° Northeast 456 525 21,700 2,100 Climbing FlightAware
12:05PM -26.0830 -48.1070 30° Northeast 461 531 22,900 2,520 Climbing FlightAware
12:06PM -25.9570 -48.0240 31° Northeast 447 514 26,200 2,640 Climbing FlightAware
12:06PM -25.9030 -47.9750 39° Northeast 443 510 27,600 2,100 Climbing FlightAware
12:07PM -25.8470 -47.9170 43° Northeast 449 517 28,700 1,080 Climbing FlightAware
12:08PM -25.7890 -47.8550 44° Northeast 442 509 29,000 240 Climbing FlightAware
12:08PM -25.7390 -47.8030 43° Northeast 465 535 29,000  Level FlightAware
12:09PM -25.6820 -47.7440 43° Northeast 483 556 29,000  Level FlightAware
12:10PM -25.6120 -47.6700 44° Northeast 483 556 29,000  Level FlightAware
12:10PM -25.5500 -47.6060 43° Northeast 481 554 29,000  Level FlightAware
12:11PM -25.4900 -47.5430 43° Northeast 482 555 29,000  Level FlightAware
12:12PM -25.3880 -47.4380 43° Northeast 481 554 29,000  Level FlightAware
12:13PM -25.3250 -47.3710 44° Northeast 481 554 29,000  Level FlightAware
12:13PM -25.2280 -47.3040 32° Northeast 465 535 29,000  Level FlightAware
12:14PM -25.1500 -47.2680 23° Northeast 465 535 29,000  Level FlightAware
12:15PM -25.0670 -47.2290 23° Northeast 466 536 29,000 -300 Level FlightAware
12:15PM -24.9910 -47.1930 23° Northeast 451 519 28,600 -780 Descending FlightAware
12:16PM -24.9490 -47.1740 22° Northeast 440 506 28,200 -1,500 Descending FlightAware
12:17PM -24.8850 -47.1440 23° Northeast 435 501 27,000 -1,980 Descending FlightAware
12:17PM -24.8060 -47.1070 23° Northeast 428 493 25,500 -2,100 Descending FlightAware
12:18PM -24.7370 -47.0750 23° Northeast 423 487 24,200 -1,980 Descending FlightAware
12:19PM -24.6420 -47.0320 22° Northeast 417 480 22,500 -2,100 Descending FlightAware
12:19PM -24.5690 -46.9980 23° Northeast 415 478 21,100 -1,920 Descending FlightAware
12:20PM -24.5100 -46.9700 23° Northeast 416 479 20,100 -1,740 Descending FlightAware
12:21PM -24.4230 -46.9090 33° Northeast 411 473 18,600 -1,680 Descending FlightAware
12:21PM -24.3830 -46.8800 33° Northeast 400 460 18,000 -1,080 Descending FlightAware
12:22PM -24.3360 -46.8460 33° Northeast 379 436 17,600 -840 Descending FlightAware
12:23PM -24.2650 -46.7960 33° Northeast 348 400 16,900 -960 Descending FlightAware
12:23PM -24.2350 -46.7570 50° Northeast 342 394 16,400 -1,020 Descending FlightAware
12:24PM -24.2040 -46.6980 60° Northeast 337 388 15,700 -960 Descending FlightAware
12:25PM -24.1740 -46.6400 60° Northeast 328 377 15,100 -900 Descending FlightAware
12:25PM -24.1330 -46.5580 61° Northeast 306 352 14,300 -840 Descending FlightAware
12:26PM -24.1130 -46.5160 62° Northeast 303 349 13,900 -840 Descending FlightAware
12:27PM -24.0870 -46.4640 61° Northeast 301 346 13,400 -840 Descending FlightAware
12:27PM -24.0590 -46.4040 63° Northeast 299 344 12,800 -840 Descending FlightAware
12:28PM -24.0370 -46.3600 61° Northeast 295 339 12,400 -600 Descending FlightAware
12:29PM -23.9990 -46.3340 32° Northeast 256 295 12,100 -600 Descending FlightAware
12:29PM -23.9530 -46.3700 324° Northwest 220 253 11,600 -540 Descending FlightAware
12:30PM -23.9350 -46.4140 294° West 221 254 11,300 -540 Descending FlightAware
12:30PM -23.9240 -46.4430 293° West 221 254 11,000 -600 Descending FlightAware
12:31PM -23.9060 -46.4890 293° West 223 257 10,600 -780 Descending FlightAware
12:32PM -23.8850 -46.5330 298° West 222 255 9,900 -720 Descending FlightAware
12:33PM -23.8590 -46.5590 318° Northwest 226 260 9,700 -480 Descending FlightAware
12:33PM -23.8350 -46.5830 318° Northwest 226 260 9,400 -540 Descending FlightAware
12:34PM -23.8010 -46.6160 318° Northwest 225 259 9,100 -540 Descending FlightAware
12:34PM -23.7680 -46.6480 318° Northwest 221 254 8,700 -540 Descending FlightAware
12:35PM -23.7440 -46.6720 318° Northwest 219 252 8,500 -480 Descending FlightAware
12:36PM -23.7190 -46.6970 318° Northwest 222 255 8,200 -480 Descending FlightAware
12:36PM -23.6910 -46.7240 319° Northwest 223 257 8,000 -180 Descending FlightAware
12:37PM -23.6620 -46.7530 318° Northwest 224 258 8,000  Level FlightAware
12:37PM -23.6310 -46.7830 318° Northwest 206 237 8,000  Level FlightAware
12:38PM -23.6020 -46.8120 317° Northwest 205 236 8,000 -180 Level FlightAware
12:39PM -23.5670 -46.8370 327° Northwest 206 237 7,800 -840 Descending FlightAware
12:40PM -23.5270 -46.8580 334° Northwest 210 242 6,800 -1,380 Descending FlightAware
12:40PM -23.4950 -46.8480 16° North 213 245 6,000 -1,080 Descending FlightAware
12:41PM -23.4710 -46.8230 44° Northeast 220 253 5,600 -480 Descending FlightAware
12:41PM -23.4790 -46.7850 103° East 202 232 5,500 -120 Descending FlightAware
12:42PM -23.4850 -46.7620 106° East 200 230 5,500 -540 Level FlightAware
12:43PM -23.5130 -46.7350 139° Southeast 175 201 4,900 -900 Descending FlightAware
12:43PM -23.5330 -46.7220 149° Southeast 140 161 4,500 -720 Descending FlightAware
12:44PM -23.5510 -46.7090 146° Southeast 124 143 4,100 -660 Descending FlightAware
12:44PM -23.5710 -46.6950 147° Southeast 124 143 3,700 -660 Descending FlightAware
12:45PM -23.5890 -46.6830 149° Southeast 119 137 3,300 -660 Descending FlightAware
12:46PM -23.6070 -46.6700 147° Southeast 129 148 2,900 -660 Descending FlightAware
12:46PM -23.6180 -46.6620 146° Southeast 121 139 2,600 -660 Descending FlightAware
12:47PM -23.6190 -46.6450 94° East 118 136 -3,120 Descending FlightAware
12:49PM -23.6310 -46.6570 180° South  Level FlightAware